Terminal Aerodrome Forecast
Issued by NWS

Home | Current Version | Previous Version | Text Only | Print | Product List | Glossary On
Versions: 1 2 3 4 5 6 7 8 9 10 11 12 13 14 15 16 17
000
FTUS43 KEAX 170500
TAFMKC
TAF
KMKC 170520Z 1706/1806 08004KT P6SM SCT250
     FM171500 11007KT P6SM SCT040 BKN200
     FM172100 15008KT P6SM VCTS SCT035CB BKN080
     FM180200 13006KT P6SM SCT025 BKN035 PROB30 1802/1806 3SM -TSRA
      SCT025CB OVC035=

USA.gov is the U.S. government's official web portal to all federal, state and local government web resources and services.